sensor_id;sensor_type;location;lat;lon;timestamp;pressure;altitude;pressure_sealevel;temperature;humidity
28181;BME280;15464;50.988;10.318;2022-08-11T00:01:54;99703.84;;;15.78;52.41
28181;BME280;15464;50.988;10.318;2022-08-11T00:04:22;99698.78;;;15.75;51.40
28181;BME280;15464;50.988;10.318;2022-08-11T00:06:50;99695.44;;;15.73;51.29
28181;BME280;15464;50.988;10.318;2022-08-11T00:09:22;99690.81;;;15.65;52.82
28181;BME280;15464;50.988;10.318;2022-08-11T00:12:04;99700.91;;;15.62;53.71
28181;BME280;15464;50.988;10.318;2022-08-11T00:14:37;99688.84;;;15.58;53.32
28181;BME280;15464;50.988;10.318;2022-08-11T00:17:05;99683.94;;;15.53;53.08
28181;BME280;15464;50.988;10.318;2022-08-11T00:19:36;99682.66;;;15.48;53.35
28181;BME280;15464;50.988;10.318;2022-08-11T00:22:23;99685.72;;;15.43;53.72
28181;BME280;15464;50.988;10.318;2022-08-11T00:24:51;99686.03;;;15.40;53.26
28181;BME280;15464;50.988;10.318;2022-08-11T00:27:35;99689.41;;;15.32;54.60
28181;BME280;15464;50.988;10.318;2022-08-11T00:30:09;99691.38;;;15.30;52.78
28181;BME280;15464;50.988;10.318;2022-08-11T00:32:37;99689.97;;;15.26;53.73
28181;BME280;15464;50.988;10.318;2022-08-11T00:35:05;99698.44;;;15.22;53.13
28181;BME280;15464;50.988;10.318;2022-08-11T00:37:53;99693.53;;;15.17;53.91
28181;BME280;15464;50.988;10.318;2022-08-11T00:40:31;99693.94;;;15.13;54.84
28181;BME280;15464;50.988;10.318;2022-08-11T00:48:27;99701.53;;;14.98;55.52
28181;BME280;15464;50.988;10.318;2022-08-11T00:53:45;99693.38;;;14.90;55.49
28181;BME280;15464;50.988;10.318;2022-08-11T00:59:19;99703.78;;;14.83;56.80
28181;BME280;15464;50.988;10.318;2022-08-11T01:07:15;99695.06;;;14.72;55.34
28181;BME280;15464;50.988;10.318;2022-08-11T01:45:08;99698.56;;;14.23;56.51
28181;BME280;15464;50.988;10.318;2022-08-11T01:58:36;99694.25;;;14.01;59.28
28181;BME280;15464;50.988;10.318;2022-08-11T02:01:27;99697.22;;;13.98;59.23
28181;BME280;15464;50.988;10.318;2022-08-11T02:11:57;99695.34;;;13.89;58.21
28181;BME280;15464;50.988;10.318;2022-08-11T02:14:35;99693.91;;;13.85;59.33
28181;BME280;15464;50.988;10.318;2022-08-11T02:17:14;99702.03;;;13.83;58.41
28181;BME280;15464;50.988;10.318;2022-08-11T02:19:47;99705.00;;;13.80;58.20
28181;BME280;15464;50.988;10.318;2022-08-11T02:27:59;99694.78;;;13.64;58.89
28181;BME280;15464;50.988;10.318;2022-08-11T02:30:30;99697.00;;;13.59;60.40
28181;BME280;15464;50.988;10.318;2022-08-11T02:33:11;99696.28;;;13.57;58.83
28181;BME280;15464;50.988;10.318;2022-08-11T02:38:48;99696.09;;;13.49;59.76
28181;BME280;15464;50.988;10.318;2022-08-11T02:46:57;99698.13;;;13.36;60.62
28181;BME280;15464;50.988;10.318;2022-08-11T02:49:32;99691.38;;;13.32;60.42
28181;BME280;15464;50.988;10.318;2022-08-11T02:55:29;99691.19;;;13.24;60.35
28181;BME280;15464;50.988;10.318;2022-08-11T02:58:25;99694.09;;;13.21;60.28
28181;BME280;15464;50.988;10.318;2022-08-11T03:01:06;99692.69;;;13.17;61.58
28181;BME280;15464;50.988;10.318;2022-08-11T03:04:12;99692.91;;;13.14;61.54
28181;BME280;15464;50.988;10.318;2022-08-11T03:25:44;99708.13;;;12.91;62.09
28181;BME280;15464;50.988;10.318;2022-08-11T03:30:52;99697.13;;;12.84;62.59
28181;BME280;15464;50.988;10.318;2022-08-11T03:33:28;99703.81;;;12.79;63.29
28181;BME280;15464;50.988;10.318;2022-08-11T03:41:33;99700.34;;;12.67;62.34
28181;BME280;15464;50.988;10.318;2022-08-11T03:44:36;99706.25;;;12.71;63.17
28181;BME280;15464;50.988;10.318;2022-08-11T03:49:56;99712.94;;;12.65;62.80
28181;BME280;15464;50.988;10.318;2022-08-11T03:52:32;99716.56;;;12.64;62.19
28181;BME280;15464;50.988;10.318;2022-08-11T04:00:19;99724.81;;;12.50;64.45
28181;BME280;15464;50.988;10.318;2022-08-11T04:08:16;99715.38;;;12.46;63.77
28181;BME280;15464;50.988;10.318;2022-08-11T04:37:58;99711.78;;;12.36;64.74
28181;BME280;15464;50.988;10.318;2022-08-11T04:43:24;99712.03;;;12.33;65.74
28181;BME280;15464;50.988;10.318;2022-08-11T04:57:21;99716.84;;;12.39;65.12
28181;BME280;15464;50.988;10.318;2022-08-11T05:00:12;99721.69;;;12.45;65.96
28181;BME280;15464;50.988;10.318;2022-08-11T05:06:06;99716.56;;;12.64;67.08
28181;BME280;15464;50.988;10.318;2022-08-11T05:13:44;99708.53;;;12.86;66.11
28181;BME280;15464;50.988;10.318;2022-08-11T05:16:33;99716.81;;;12.93;66.33
28181;BME280;15464;50.988;10.318;2022-08-11T05:19:24;99724.44;;;12.98;65.66
28181;BME280;15464;50.988;10.318;2022-08-11T05:22:11;99717.63;;;13.05;66.16
28181;BME280;15464;50.988;10.318;2022-08-11T05:24:58;99721.47;;;13.12;66.44
28181;BME280;15464;50.988;10.318;2022-08-11T05:30:54;99717.84;;;13.24;66.04
28181;BME280;15464;50.988;10.318;2022-08-11T05:33:48;99715.47;;;13.30;66.09
28181;BME280;15464;50.988;10.318;2022-08-11T05:36:44;99718.34;;;13.39;65.61
28181;BME280;15464;50.988;10.318;2022-08-11T05:39:14;99720.59;;;13.43;65.72
28181;BME280;15464;50.988;10.318;2022-08-11T05:42:03;99721.78;;;13.50;65.46
28181;BME280;15464;50.988;10.318;2022-08-11T05:45:08;99729.41;;;13.55;66.52
28181;BME280;15464;50.988;10.318;2022-08-11T05:48:15;99725.94;;;13.64;66.42
28181;BME280;15464;50.988;10.318;2022-08-11T05:51:00;99725.16;;;13.73;65.56
28181;BME280;15464;50.988;10.318;2022-08-11T05:53:55;99729.56;;;13.84;65.49
28181;BME280;15464;50.988;10.318;2022-08-11T05:56:57;99728.78;;;13.93;65.06
28181;BME280;15464;50.988;10.318;2022-08-11T05:59:25;99725.28;;;14.02;64.39
28181;BME280;15464;50.988;10.318;2022-08-11T06:02:02;99726.31;;;14.10;63.99
28181;BME280;15464;50.988;10.318;2022-08-11T06:04:30;99730.72;;;14.21;63.56
28181;BME280;15464;50.988;10.318;2022-08-11T06:09:25;99730.94;;;14.39;63.75
28181;BME280;15464;50.988;10.318;2022-08-11T06:11:52;99718.63;;;14.47;64.22
28181;BME280;15464;50.988;10.318;2022-08-11T06:14:19;99715.81;;;14.59;62.92
28181;BME280;15464;50.988;10.318;2022-08-11T06:16:48;99722.88;;;14.69;63.08
28181;BME280;15464;50.988;10.318;2022-08-11T06:19:15;99718.97;;;14.83;63.11
28181;BME280;15464;50.988;10.318;2022-08-11T06:21:43;99710.53;;;14.97;62.93
28181;BME280;15464;50.988;10.318;2022-08-11T06:24:10;99722.06;;;15.17;62.16
28181;BME280;15464;50.988;10.318;2022-08-11T06:26:38;99715.84;;;15.45;61.61
28181;BME280;15464;50.988;10.318;2022-08-11T06:29:25;99718.63;;;15.82;61.13
28181;BME280;15464;50.988;10.318;2022-08-11T06:32:12;99721.53;;;16.26;60.17
28181;BME280;15464;50.988;10.318;2022-08-11T06:40:30;99706.59;;;17.66;56.35
28181;BME280;15464;50.988;10.318;2022-08-11T06:47:57;99704.13;;;19.07;53.41
28181;BME280;15464;50.988;10.318;2022-08-11T06:50:28;99706.84;;;19.56;53.18
28181;BME280;15464;50.988;10.318;2022-08-11T06:53:15;99697.34;;;20.00;51.63
28181;BME280;15464;50.988;10.318;2022-08-11T06:55:43;99698.56;;;20.45;51.48
28181;BME280;15464;50.988;10.318;2022-08-11T06:58:33;99696.56;;;20.78;49.04
28181;BME280;15464;50.988;10.318;2022-08-11T07:01:31;99694.28;;;21.12;49.65
28181;BME280;15464;50.988;10.318;2022-08-11T07:04:05;99688.09;;;21.49;49.26
28181;BME280;15464;50.988;10.318;2022-08-11T07:06:43;99691.25;;;21.90;45.72
28181;BME280;15464;50.988;10.318;2022-08-11T07:12:45;99684.34;;;22.97;45.57
28181;BME280;15464;50.988;10.318;2022-08-11T07:15:54;99686.59;;;23.15;45.34
28181;BME280;15464;50.988;10.318;2022-08-11T07:18:39;99678.47;;;22.93;43.48
28181;BME280;15464;50.988;10.318;2022-08-11T07:21:28;99671.50;;;23.27;43.46
28181;BME280;15464;50.988;10.318;2022-08-11T07:24:31;99678.25;;;23.38;42.53
28181;BME280;15464;50.988;10.318;2022-08-11T07:27:34;99676.56;;;23.79;43.38
28181;BME280;15464;50.988;10.318;2022-08-11T07:30:20;99670.09;;;24.15;40.71
28181;BME280;15464;50.988;10.318;2022-08-11T07:32:49;99674.22;;;24.45;39.83
28181;BME280;15464;50.988;10.318;2022-08-11T07:35:16;99676.44;;;24.82;39.72
28181;BME280;15464;50.988;10.318;2022-08-11T07:37:52;99671.44;;;24.79;38.20
28181;BME280;15464;50.988;10.318;2022-08-11T07:40:28;99672.78;;;25.10;38.79
28181;BME280;15464;50.988;10.318;2022-08-11T07:42:55;99666.91;;;25.00;37.03
28181;BME280;15464;50.988;10.318;2022-08-11T07:45:22;99657.75;;;25.27;38.55
28181;BME280;15464;50.988;10.318;2022-08-11T07:48:08;99656.09;;;25.65;37.17
28181;BME280;15464;50.988;10.318;2022-08-11T07:50:54;99657.13;;;25.78;35.73
28181;BME280;15464;50.988;10.318;2022-08-11T07:53:40;99659.81;;;26.04;35.55
28181;BME280;15464;50.988;10.318;2022-08-11T07:56:27;99661.03;;;26.08;35.20
28181;BME280;15464;50.988;10.318;2022-08-11T07:59:13;99665.56;;;26.40;35.42
28181;BME280;15464;50.988;10.318;2022-08-11T08:02:19;99650.28;;;26.84;32.22
28181;BME280;15464;50.988;10.318;2022-08-11T08:05:04;99654.56;;;26.67;33.40
28181;BME280;15464;50.988;10.318;2022-08-11T08:07:50;99650.06;;;26.85;32.72
28181;BME280;15464;50.988;10.318;2022-08-11T08:10:37;99647.84;;;27.07;32.87
28181;BME280;15464;50.988;10.318;2022-08-11T08:13:22;99642.41;;;27.32;32.72
28181;BME280;15464;50.988;10.318;2022-08-11T08:16:07;99642.53;;;27.68;31.43
28181;BME280;15464;50.988;10.318;2022-08-11T08:18:52;99643.53;;;27.92;31.97
28181;BME280;15464;50.988;10.318;2022-08-11T08:21:18;99641.81;;;27.55;31.27
28181;BME280;15464;50.988;10.318;2022-08-11T08:23:45;99643.84;;;27.84;31.20
28181;BME280;15464;50.988;10.318;2022-08-11T08:26:18;99640.66;;;27.87;31.20
28181;BME280;15464;50.988;10.318;2022-08-11T08:29:04;99637.91;;;27.69;30.70
28181;BME280;15464;50.988;10.318;2022-08-11T08:31:51;99630.53;;;27.51;30.41
28181;BME280;15464;50.988;10.318;2022-08-11T08:34:18;99633.91;;;27.47;31.52
28181;BME280;15464;50.988;10.318;2022-08-11T08:36:45;99634.66;;;27.36;32.09
28181;BME280;15464;50.988;10.318;2022-08-11T08:39:12;99635.34;;;27.24;31.54
28181;BME280;15464;50.988;10.318;2022-08-11T08:41:41;99627.69;;;27.15;31.56
28181;BME280;15464;50.988;10.318;2022-08-11T08:44:09;99635.47;;;26.73;31.96
28181;BME280;15464;50.988;10.318;2022-08-11T08:46:57;99638.22;;;26.67;31.98
28181;BME280;15464;50.988;10.318;2022-08-11T08:49:32;99636.94;;;26.69;31.68
28181;BME280;15464;50.988;10.318;2022-08-11T08:52:00;99637.47;;;26.53;32.52
28181;BME280;15464;50.988;10.318;2022-08-11T08:54:48;99628.28;;;26.47;32.67
28181;BME280;15464;50.988;10.318;2022-08-11T08:57:16;99633.16;;;26.32;33.28
28181;BME280;15464;50.988;10.318;2022-08-11T08:59:44;99639.47;;;26.13;34.04
28181;BME280;15464;50.988;10.318;2022-08-11T09:02:17;99637.19;;;26.17;33.38
28181;BME280;15464;50.988;10.318;2022-08-11T09:04:59;99638.44;;;26.14;33.06
28181;BME280;15464;50.988;10.318;2022-08-11T09:07:25;99628.22;;;26.03;33.85
28181;BME280;15464;50.988;10.318;2022-08-11T09:10:04;99633.81;;;26.15;32.98
28181;BME280;15464;50.988;10.318;2022-08-11T09:12:31;99629.22;;;26.15;33.53
28181;BME280;15464;50.988;10.318;2022-08-11T09:15:04;99625.69;;;26.08;33.13
28181;BME280;15464;50.988;10.318;2022-08-11T09:17:40;99627.56;;;26.07;31.69
28181;BME280;15464;50.988;10.318;2022-08-11T09:20:27;99620.84;;;26.17;32.63
28181;BME280;15464;50.988;10.318;2022-08-11T09:22:55;99623.56;;;26.23;32.12
28181;BME280;15464;50.988;10.318;2022-08-11T09:26:00;99616.25;;;26.17;31.40
28181;BME280;15464;50.988;10.318;2022-08-11T09:28:46;99622.56;;;26.11;31.84
28181;BME280;15464;50.988;10.318;2022-08-11T09:31:15;99615.41;;;26.23;31.33
28181;BME280;15464;50.988;10.318;2022-08-11T09:33:42;99609.72;;;26.31;30.97
28181;BME280;15464;50.988;10.318;2022-08-11T09:36:11;99618.28;;;26.41;30.73
28181;BME280;15464;50.988;10.318;2022-08-11T09:38:56;99613.28;;;26.32;30.72
28181;BME280;15464;50.988;10.318;2022-08-11T09:41:42;99608.50;;;26.21;30.47
28181;BME280;15464;50.988;10.318;2022-08-11T09:44:27;99604.13;;;26.13;31.91
28181;BME280;15464;50.988;10.318;2022-08-11T09:49:46;99609.09;;;26.36;30.53
28181;BME280;15464;50.988;10.318;2022-08-11T09:52:14;99609.91;;;26.36;30.14
28181;BME280;15464;50.988;10.318;2022-08-11T09:54:41;99600.66;;;26.44;31.03
28181;BME280;15464;50.988;10.318;2022-08-11T09:57:13;99598.97;;;26.43;30.43
28181;BME280;15464;50.988;10.318;2022-08-11T09:59:58;99596.03;;;26.51;30.75
28181;BME280;15464;50.988;10.318;2022-08-11T10:02:47;99603.84;;;26.41;29.84
28181;BME280;15464;50.988;10.318;2022-08-11T10:05:18;99599.75;;;26.57;29.89
28181;BME280;15464;50.988;10.318;2022-08-11T10:08:04;99585.09;;;26.58;29.28
28181;BME280;15464;50.988;10.318;2022-08-11T10:10:35;99579.66;;;26.58;29.37
28181;BME280;15464;50.988;10.318;2022-08-11T10:13:04;99583.00;;;26.60;28.74
28181;BME280;15464;50.988;10.318;2022-08-11T10:15:53;99571.31;;;26.53;28.92
28181;BME280;15464;50.988;10.318;2022-08-11T10:18:40;99573.84;;;26.54;28.66
28181;BME280;15464;50.988;10.318;2022-08-11T10:23:54;99554.97;;;26.84;28.11
28181;BME280;15464;50.988;10.318;2022-08-11T10:26:40;99559.56;;;26.90;27.23
28181;BME280;15464;50.988;10.318;2022-08-11T10:29:24;99557.63;;;26.97;27.34
28181;BME280;15464;50.988;10.318;2022-08-11T10:32:20;99562.69;;;26.94;27.25
28181;BME280;15464;50.988;10.318;2022-08-11T10:35:24;99566.41;;;26.99;27.95
28181;BME280;15464;50.988;10.318;2022-08-11T10:37:52;99557.91;;;26.89;27.98
28181;BME280;15464;50.988;10.318;2022-08-11T10:40:35;99544.81;;;26.73;28.10
28181;BME280;15464;50.988;10.318;2022-08-11T10:43:02;99550.72;;;26.63;28.37
28181;BME280;15464;50.988;10.318;2022-08-11T10:45:32;99547.66;;;26.84;28.22
28181;BME280;15464;50.988;10.318;2022-08-11T10:48:18;99534.03;;;26.91;28.12
28181;BME280;15464;50.988;10.318;2022-08-11T10:50:46;99542.13;;;27.22;28.12
28181;BME280;15464;50.988;10.318;2022-08-11T10:53:33;99545.63;;;27.29;27.90
28181;BME280;15464;50.988;10.318;2022-08-11T10:56:19;99541.50;;;27.20;27.94
28181;BME280;15464;50.988;10.318;2022-08-11T10:59:05;99534.25;;;27.33;27.88
28181;BME280;15464;50.988;10.318;2022-08-11T11:01:36;99536.59;;;27.54;28.11
28181;BME280;15464;50.988;10.318;2022-08-11T11:04:03;99526.91;;;27.58;27.48
28181;BME280;15464;50.988;10.318;2022-08-11T11:06:32;99529.13;;;27.43;27.56
28181;BME280;15464;50.988;10.318;2022-08-11T11:09:02;99527.63;;;27.47;27.60
28181;BME280;15464;50.988;10.318;2022-08-11T11:11:32;99512.31;;;27.46;27.18
28181;BME280;15464;50.988;10.318;2022-08-11T11:14:19;99518.88;;;27.63;26.91
28181;BME280;15464;50.988;10.318;2022-08-11T11:17:17;99508.41;;;27.96;25.55
28181;BME280;15464;50.988;10.318;2022-08-11T11:20:05;99530.00;;;27.98;25.14
28181;BME280;15464;50.988;10.318;2022-08-11T11:22:55;99520.75;;;28.17;25.01
28181;BME280;15464;50.988;10.318;2022-08-11T11:31:05;99520.03;;;28.81;24.75
28181;BME280;15464;50.988;10.318;2022-08-11T11:34:33;99520.66;;;29.07;24.63
28181;BME280;15464;50.988;10.318;2022-08-11T11:39:04;99508.31;;;29.39;23.30
28181;BME280;15464;50.988;10.318;2022-08-11T11:41:32;99513.28;;;29.65;22.88
28181;BME280;15464;50.988;10.318;2022-08-11T11:43:58;99510.53;;;29.77;23.07
28181;BME280;15464;50.988;10.318;2022-08-11T11:46:27;99506.91;;;29.88;23.17
28181;BME280;15464;50.988;10.318;2022-08-11T11:48:55;99510.34;;;30.07;22.80
28181;BME280;15464;50.988;10.318;2022-08-11T11:51:22;99499.66;;;29.94;23.08
28181;BME280;15464;50.988;10.318;2022-08-11T11:53:49;99486.88;;;30.11;22.45
28181;BME280;15464;50.988;10.318;2022-08-11T11:56:16;99479.72;;;30.83;23.20
28181;BME280;15464;50.988;10.318;2022-08-11T11:58:44;99489.69;;;31.06;22.13
28181;BME280;15464;50.988;10.318;2022-08-11T12:01:29;99487.25;;;30.93;22.56
28181;BME280;15464;50.988;10.318;2022-08-11T12:03:58;99497.38;;;30.93;22.38
28181;BME280;15464;50.988;10.318;2022-08-11T12:06:25;99487.16;;;31.38;22.34
28181;BME280;15464;50.988;10.318;2022-08-11T12:08:54;99489.28;;;31.14;21.70
28181;BME280;15464;50.988;10.318;2022-08-11T12:11:21;99488.03;;;31.44;21.67
28181;BME280;15464;50.988;10.318;2022-08-11T12:14:09;99477.63;;;31.84;22.29
28181;BME280;15464;50.988;10.318;2022-08-11T12:16:37;99471.81;;;32.02;21.50
28181;BME280;15464;50.988;10.318;2022-08-11T12:19:09;99471.56;;;32.31;20.66
28181;BME280;15464;50.988;10.318;2022-08-11T12:21:37;99464.22;;;32.10;20.49
28181;BME280;15464;50.988;10.318;2022-08-11T12:24:26;99466.34;;;32.88;21.00
28181;BME280;15464;50.988;10.318;2022-08-11T12:27:12;99461.00;;;32.71;20.31
28181;BME280;15464;50.988;10.318;2022-08-11T12:32:22;99449.94;;;32.34;20.52
28181;BME280;15464;50.988;10.318;2022-08-11T12:34:49;99450.78;;;32.35;21.10
28181;BME280;15464;50.988;10.318;2022-08-11T12:37:18;99447.53;;;32.43;21.09
28181;BME280;15464;50.988;10.318;2022-08-11T12:39:49;99440.41;;;32.42;21.26
28181;BME280;15464;50.988;10.318;2022-08-11T12:42:56;99434.53;;;32.65;20.75
28181;BME280;15464;50.988;10.318;2022-08-11T12:45:47;99425.03;;;32.46;20.71
28181;BME280;15464;50.988;10.318;2022-08-11T12:48:20;99431.25;;;32.10;20.25
28181;BME280;15464;50.988;10.318;2022-08-11T12:51:25;99422.97;;;32.04;20.69
28181;BME280;15464;50.988;10.318;2022-08-11T12:54:37;99428.31;;;32.43;20.31
28181;BME280;15464;50.988;10.318;2022-08-11T12:57:17;99429.44;;;32.15;20.23
28181;BME280;15464;50.988;10.318;2022-08-11T13:00:04;99423.09;;;32.41;20.67
28181;BME280;15464;50.988;10.318;2022-08-11T13:02:50;99426.28;;;32.60;20.74
28181;BME280;15464;50.988;10.318;2022-08-11T13:05:35;99417.72;;;32.94;19.76
28181;BME280;15464;50.988;10.318;2022-08-11T13:08:10;99407.00;;;33.29;20.60
28181;BME280;15464;50.988;10.318;2022-08-11T13:10:39;99405.00;;;33.82;20.39
28181;BME280;15464;50.988;10.318;2022-08-11T13:13:24;99404.84;;;33.41;19.61
28181;BME280;15464;50.988;10.318;2022-08-11T13:16:11;99402.97;;;33.62;19.48
28181;BME280;15464;50.988;10.318;2022-08-11T13:18:40;99398.19;;;33.37;19.42
28181;BME280;15464;50.988;10.318;2022-08-11T13:21:11;99388.72;;;33.18;19.40
28181;BME280;15464;50.988;10.318;2022-08-11T13:23:46;99391.25;;;33.87;19.30
28181;BME280;15464;50.988;10.318;2022-08-11T13:26:31;99399.91;;;33.48;18.72
28181;BME280;15464;50.988;10.318;2022-08-11T13:29:18;99385.75;;;33.87;19.51
28181;BME280;15464;50.988;10.318;2022-08-11T13:31:47;99386.59;;;34.03;19.38
28181;BME280;15464;50.988;10.318;2022-08-11T13:34:14;99379.75;;;34.10;19.81
28181;BME280;15464;50.988;10.318;2022-08-11T13:36:41;99388.44;;;33.67;17.33
28181;BME280;15464;50.988;10.318;2022-08-11T13:39:08;99371.34;;;33.65;18.19
28181;BME280;15464;50.988;10.318;2022-08-11T13:41:35;99385.91;;;33.03;18.98
28181;BME280;15464;50.988;10.318;2022-08-11T13:44:08;99370.31;;;33.81;19.79
28181;BME280;15464;50.988;10.318;2022-08-11T13:46:35;99365.16;;;34.55;19.11
28181;BME280;15464;50.988;10.318;2022-08-11T13:49:02;99368.13;;;35.04;17.40
28181;BME280;15464;50.988;10.318;2022-08-11T13:51:29;99373.06;;;35.12;17.67
28181;BME280;15464;50.988;10.318;2022-08-11T13:56:27;99362.78;;;35.38;18.45
28181;BME280;15464;50.988;10.318;2022-08-11T13:58:55;99367.91;;;34.75;17.32
28181;BME280;15464;50.988;10.318;2022-08-11T14:01:23;99358.28;;;34.37;18.29
28181;BME280;15464;50.988;10.318;2022-08-11T14:04:13;99355.50;;;34.68;18.03
28181;BME280;15464;50.988;10.318;2022-08-11T14:06:57;99355.50;;;34.63;17.66
28181;BME280;15464;50.988;10.318;2022-08-11T14:09:27;99349.72;;;34.64;17.98
28181;BME280;15464;50.988;10.318;2022-08-11T14:11:57;99346.41;;;34.57;18.15
28181;BME280;15464;50.988;10.318;2022-08-11T14:14:51;99357.78;;;33.38;18.37
28181;BME280;15464;50.988;10.318;2022-08-11T14:17:20;99359.00;;;33.10;18.67
28181;BME280;15464;50.988;10.318;2022-08-11T14:20:08;99341.66;;;33.67;18.18
28181;BME280;15464;50.988;10.318;2022-08-11T14:22:55;99339.94;;;33.55;18.79
28181;BME280;15464;50.988;10.318;2022-08-11T14:25:22;99339.50;;;33.84;18.49
28181;BME280;15464;50.988;10.318;2022-08-11T14:28:09;99345.00;;;33.99;18.46
28181;BME280;15464;50.988;10.318;2022-08-11T14:30:55;99331.78;;;33.76;17.87
28181;BME280;15464;50.988;10.318;2022-08-11T14:33:27;99337.22;;;33.60;18.05
28181;BME280;15464;50.988;10.318;2022-08-11T14:36:14;99343.16;;;33.27;18.29
28181;BME280;15464;50.988;10.318;2022-08-11T14:38:40;99328.34;;;33.38;18.05
28181;BME280;15464;50.988;10.318;2022-08-11T14:41:07;99340.13;;;32.76;17.95
28181;BME280;15464;50.988;10.318;2022-08-11T14:43:53;99338.44;;;32.07;18.33
28181;BME280;15464;50.988;10.318;2022-08-11T14:46:40;99338.09;;;31.98;19.08
28181;BME280;15464;50.988;10.318;2022-08-11T14:49:27;99334.38;;;32.41;19.05
28181;BME280;15464;50.988;10.318;2022-08-11T14:51:54;99336.47;;;32.66;19.34
28181;BME280;15464;50.988;10.318;2022-08-11T14:54:27;99328.88;;;32.41;19.04
28181;BME280;15464;50.988;10.318;2022-08-11T14:57:13;99327.25;;;32.82;18.95
28181;BME280;15464;50.988;10.318;2022-08-11T14:59:41;99323.81;;;32.65;19.29
28181;BME280;15464;50.988;10.318;2022-08-11T15:02:08;99328.72;;;32.58;19.30
28181;BME280;15464;50.988;10.318;2022-08-11T15:04:56;99329.63;;;32.31;19.25
28181;BME280;15464;50.988;10.318;2022-08-11T15:07:24;99325.16;;;31.93;19.79
28181;BME280;15464;50.988;10.318;2022-08-11T15:09:56;99321.47;;;32.10;19.77
28181;BME280;15464;50.988;10.318;2022-08-11T15:12:39;99321.19;;;31.79;19.34
28181;BME280;15464;50.988;10.318;2022-08-11T15:15:10;99326.69;;;31.57;19.71
28181;BME280;15464;50.988;10.318;2022-08-11T15:17:56;99323.63;;;31.54;20.17
28181;BME280;15464;50.988;10.318;2022-08-11T15:20:26;99325.44;;;31.65;20.38
28181;BME280;15464;50.988;10.318;2022-08-11T15:23:12;99312.88;;;31.74;19.92
28181;BME280;15464;50.988;10.318;2022-08-11T15:26:02;99312.44;;;31.34;20.36
28181;BME280;15464;50.988;10.318;2022-08-11T15:28:30;99313.41;;;31.22;20.40
28181;BME280;15464;50.988;10.318;2022-08-11T15:31:18;99308.56;;;31.08;20.37
28181;BME280;15464;50.988;10.318;2022-08-11T15:33:54;99313.75;;;30.88;20.65
28181;BME280;15464;50.988;10.318;2022-08-11T15:36:43;99301.28;;;30.97;20.72
28181;BME280;15464;50.988;10.318;2022-08-11T15:39:37;99301.94;;;30.87;20.90
28181;BME280;15464;50.988;10.318;2022-08-11T15:42:24;99291.00;;;30.49;20.98
28181;BME280;15464;50.988;10.318;2022-08-11T15:45:09;99288.25;;;30.49;21.46
28181;BME280;15464;50.988;10.318;2022-08-11T15:47:56;99296.31;;;30.38;21.61
28181;BME280;15464;50.988;10.318;2022-08-11T15:50:31;99294.41;;;30.05;21.18
28181;BME280;15464;50.988;10.318;2022-08-11T15:53:01;99296.81;;;30.02;21.71
28181;BME280;15464;50.988;10.318;2022-08-11T15:55:28;99290.50;;;30.18;22.07
28181;BME280;15464;50.988;10.318;2022-08-11T15:57:58;99287.13;;;30.28;21.47
28181;BME280;15464;50.988;10.318;2022-08-11T16:00:45;99292.72;;;29.88;21.37
28181;BME280;15464;50.988;10.318;2022-08-11T16:03:38;99295.59;;;29.81;21.47
28181;BME280;15464;50.988;10.318;2022-08-11T16:06:34;99292.19;;;29.74;21.78
28181;BME280;15464;50.988;10.318;2022-08-11T16:09:07;99280.19;;;29.75;21.85
28181;BME280;15464;50.988;10.318;2022-08-11T16:11:44;99284.44;;;29.83;21.68
28181;BME280;15464;50.988;10.318;2022-08-11T16:14:12;99284.91;;;29.80;21.47
28181;BME280;15464;50.988;10.318;2022-08-11T16:16:59;99288.53;;;29.68;21.22
28181;BME280;15464;50.988;10.318;2022-08-11T16:19:27;99279.09;;;29.59;21.07
28181;BME280;15464;50.988;10.318;2022-08-11T16:22:03;99280.09;;;29.53;21.44
28181;BME280;15464;50.988;10.318;2022-08-11T16:24:34;99273.25;;;29.39;21.62
28181;BME280;15464;50.988;10.318;2022-08-11T16:27:21;99280.97;;;29.31;21.88
28181;BME280;15464;50.988;10.318;2022-08-11T16:29:49;99277.53;;;29.23;22.07
28181;BME280;15464;50.988;10.318;2022-08-11T16:32:20;99284.16;;;29.11;22.08
28181;BME280;15464;50.988;10.318;2022-08-11T16:34:56;99279.53;;;29.00;22.85
28181;BME280;15464;50.988;10.318;2022-08-11T16:37:42;99281.25;;;28.77;22.41
28181;BME280;15464;50.988;10.318;2022-08-11T16:40:46;99280.53;;;28.70;22.51
28181;BME280;15464;50.988;10.318;2022-08-11T16:43:16;99279.13;;;28.56;22.63
28181;BME280;15464;50.988;10.318;2022-08-11T16:46:05;99279.59;;;28.53;23.07
28181;BME280;15464;50.988;10.318;2022-08-11T16:48:51;99279.59;;;28.53;22.91
28181;BME280;15464;50.988;10.318;2022-08-11T16:51:19;99284.13;;;28.47;23.50
28181;BME280;15464;50.988;10.318;2022-08-11T16:53:47;99289.31;;;28.37;23.46
28181;BME280;15464;50.988;10.318;2022-08-11T16:56:33;99277.00;;;28.35;23.09
28181;BME280;15464;50.988;10.318;2022-08-11T16:59:01;99284.13;;;28.36;23.43
28181;BME280;15464;50.988;10.318;2022-08-11T17:01:53;99278.69;;;28.36;23.88
28181;BME280;15464;50.988;10.318;2022-08-11T17:04:34;99276.28;;;28.28;23.77
28181;BME280;15464;50.988;10.318;2022-08-11T17:07:23;99282.81;;;28.15;23.27
28181;BME280;15464;50.988;10.318;2022-08-11T17:13:28;99274.94;;;28.07;23.38
28181;BME280;15464;50.988;10.318;2022-08-11T17:16:00;99284.28;;;27.99;23.58
28181;BME280;15464;50.988;10.318;2022-08-11T17:18:53;99279.53;;;27.83;23.63
28181;BME280;15464;50.988;10.318;2022-08-11T17:23:51;99271.91;;;27.74;23.89
28181;BME280;15464;50.988;10.318;2022-08-11T17:26:22;99272.38;;;27.71;24.06
28181;BME280;15464;50.988;10.318;2022-08-11T17:28:54;99269.03;;;27.57;24.29
28181;BME280;15464;50.988;10.318;2022-08-11T17:31:22;99269.03;;;27.57;24.36